Time;durP1;ratioP1;P1;durP2;ratioP2;P2;SDS_P1;SDS_P2;PMS_P1;PMS_P2;Temp;Humidity;BMP_temperature;BMP_pressure;BME280_temperature;BME280_humidity;BME280_pressure;Samples;Min_cycle;Max_cycle;Signal;HPM_P1;HPM_P2
2021/12/24 00:03:50;;;;;;;15.55;14.20;;;;;;;5.62;86.09;98583.63;10539654;28;20063;-72
2021/12/24 00:08:55;;;;;;;15.65;14.38;;;;;;;5.61;86.77;98576.72;10540167;28;20071;-72
2021/12/24 00:13:58;;;;;;;16.63;15.32;;;;;;;5.46;87.66;98582.50;10540914;28;20063;-72
2021/12/24 00:19:16;;;;;;;16.52;15.20;;;;;;;5.50;88.23;98579.72;10540171;28;20065;-72
2021/12/24 00:35:33;;;;;;;17.65;16.15;;;;;;;5.30;91.82;98561.31;10521480;28;20044;-71
2021/12/24 00:40:27;;;;;;;18.63;16.83;;;;;;;5.20;94.15;98552.09;10535244;28;20058;-71
2021/12/24 00:45:35;;;;;;;21.55;19.52;;;;;;;5.19;94.71;98535.63;10520845;28;20040;-71
2021/12/24 00:55:48;;;;;;;21.08;19.20;;;;;;;5.25;95.72;98511.97;10521065;28;20036;-71
2021/12/24 01:00:50;;;;;;;19.33;17.52;;;;;;;5.25;95.49;98501.53;10540638;28;20040;-71
2021/12/24 01:05:53;;;;;;;20.30;18.48;;;;;;;5.21;96.59;98496.50;10547109;28;20427;-70
2021/12/24 01:10:58;;;;;;;19.60;17.70;;;;;;;5.53;96.42;98493.63;10548029;28;20048;-70
2021/12/24 01:16:11;;;;;;;16.98;15.57;;;;;;;5.46;95.92;98502.53;10528017;28;20086;-70
2021/12/24 01:21:32;;;;;;;16.73;15.32;;;;;;;5.63;96.83;98508.91;10528990;28;20146;-71
2021/12/24 01:26:46;;;;;;;16.50;15.10;;;;;;;5.68;96.82;98507.00;10527469;28;20055;-71
2021/12/24 01:42:48;;;;;;;12.88;11.88;;;;;;;5.90;96.18;98507.91;10527649;28;20143;-71
2021/12/24 01:47:52;;;;;;;13.60;12.50;;;;;;;5.77;96.98;98510.09;10545897;28;20077;-70
2021/12/24 01:52:55;;;;;;;13.23;11.93;;;;;;;5.74;96.80;98501.53;10527538;28;20113;-70
2021/12/24 01:57:59;;;;;;;13.98;12.75;;;;;;;5.61;97.86;98495.06;10527612;28;20043;-71
2021/12/24 02:03:01;;;;;;;11.10;10.15;;;;;;;5.75;96.91;98484.97;10526104;28;20044;-71
2021/12/24 02:08:04;;;;;;;11.30;10.40;;;;;;;5.71;96.10;98486.00;10526087;28;20048;-71
2021/12/24 02:13:06;;;;;;;9.35;8.65;;;;;;;5.84;94.58;98479.44;10525667;28;20548;-71
2021/12/24 02:28:17;;;;;;;8.88;8.18;;;;;;;5.81;94.65;98487.38;10526896;28;20042;-71
2021/12/24 02:28:20;;;;;;;8.77;8.07;;;;;;;5.80;94.96;98480.47;10524934;28;20048;-72
2021/12/24 02:29:09;;;;;;;6.93;6.40;;;;;;;6.02;93.06;98470.09;10526555;28;20052;-71
2021/12/24 02:34:11;;;;;;;8.43;6.90;;;;;;;5.94;93.83;98464.34;10542796;28;20040;-71
2021/12/24 02:39:13;;;;;;;6.65;6.15;;;;;;;5.94;94.14;98457.38;10542314;28;20138;-71
2021/12/24 02:44:15;;;;;;;5.70;5.30;;;;;;;5.95;94.13;98468.66;10525182;28;20047;-71
2021/12/24 02:53:54;;;;;;;5.65;5.20;;;;;;;5.99;93.89;98462.41;10526719;28;20433;-71
2021/12/24 02:54:38;;;;;;;4.90;4.50;;;;;;;5.93;93.87;98465.22;10542799;28;20485;-71
2021/12/24 02:59:47;;;;;;;4.65;4.20;;;;;;;5.99;93.82;98463.25;10541262;28;20040;-71
2021/12/24 03:04:50;;;;;;;3.97;3.67;;;;;;;5.99;93.97;98462.41;10524266;28;20040;-71
2021/12/24 03:09:52;;;;;;;4.90;4.50;;;;;;;5.88;94.52;98456.69;10523958;28;20048;-71
2021/12/24 03:14:54;;;;;;;3.92;3.63;;;;;;;5.96;93.99;98455.53;10524307;28;20470;-71
2021/12/24 03:20:03;;;;;;;3.50;3.20;;;;;;;6.03;93.84;98450.94;10519076;22;20520;-72
2021/12/24 03:25:06;;;;;;;3.70;3.40;;;;;;;6.04;93.93;98450.03;10465192;28;20135;-72
2021/12/24 03:30:09;;;;;;;3.45;3.15;;;;;;;5.94;94.20;98449.53;10482396;28;20052;-72
2021/12/24 03:35:11;;;;;;;3.05;2.75;;;;;;;5.85;95.85;98443.81;10483231;28;20051;-72
2021/12/24 03:40:13;;;;;;;2.55;2.35;;;;;;;5.93;95.25;98447.84;10481918;28;20052;-72
2021/12/24 03:50:27;;;;;;;2.15;1.95;;;;;;;6.00;95.27;98448.44;10481928;28;20052;-73
2021/12/24 03:55:29;;;;;;;2.15;1.92;;;;;;;5.93;96.19;98454.78;10481620;28;20052;-73
2021/12/24 04:00:32;;;;;;;1.83;1.67;;;;;;;6.01;95.86;98448.38;10481831;28;20040;-72
2021/12/24 04:05:57;;;;;;;2.30;1.88;;;;;;;5.84;96.89;98455.97;10461426;28;20127;-72
2021/12/24 04:11:17;;;;;;;1.70;1.60;;;;;;;5.88;96.32;98452.31;10500024;28;20072;-72
2021/12/24 04:16:20;;;;;;;1.73;1.63;;;;;;;5.83;97.74;98443.84;10481767;28;20459;-72
2021/12/24 04:26:53;;;;;;;1.65;1.55;;;;;;;5.97;97.80;98431.16;10499871;28;20409;-73
2021/12/24 04:32:09;;;;;;;1.90;1.40;;;;;;;6.00;97.89;98430.19;10465030;28;20045;-73
2021/12/24 05:03:40;;;;;;;1.00;1.00;;;;;;;6.05;99.23;98397.78;10488260;28;20044;-72
2021/12/24 05:09:07;;;;;;;1.23;1.13;;;;;;;6.13;99.54;98399.25;10488510;28;20068;-73
2021/12/24 05:14:07;;;;;;;1.02;1.02;;;;;;;6.12;99.45;98393.19;10504745;28;20501;-73
2021/12/24 05:24:57;;;;;;;1.98;1.77;;;;;;;6.14;100.00;98403.56;10489300;28;20073;-72
2021/12/24 05:30:00;;;;;;;2.13;2.03;;;;;;;6.21;100.00;98387.59;10513031;28;20063;-72
2021/12/24 05:35:04;;;;;;;2.30;2.20;;;;;;;6.20;100.00;98391.13;10494006;28;20071;-73
2021/12/24 05:40:10;;;;;;;3.10;2.90;;;;;;;6.21;100.00;98384.16;10511175;28;20071;-73
2021/12/24 05:45:12;;;;;;;3.78;3.50;;;;;;;6.24;100.00;98379.66;10474381;28;20040;-73
2021/12/24 05:50:34;;;;;;;5.05;4.65;;;;;;;6.33;100.00;98373.22;10509006;28;20040;-73
2021/12/24 05:55:54;;;;;;;5.30;4.85;;;;;;;6.28;100.00;98382.97;10510414;28;20048;-71
2021/12/24 06:00:57;;;;;;;5.20;4.90;;;;;;;6.44;100.00;98389.28;10507366;28;20047;-72
2021/12/24 06:06:11;;;;;;;5.68;5.28;;;;;;;6.39;100.00;98386.00;10490150;28;20044;-72
2021/12/24 06:11:13;;;;;;;5.35;4.95;;;;;;;6.46;100.00;98374.41;10505806;28;20045;-72
2021/12/24 06:16:15;;;;;;;5.30;4.90;;;;;;;6.57;100.00;98382.63;10506813;28;20480;-72
2021/12/24 06:21:16;;;;;;;4.90;4.60;;;;;;;6.68;98.76;98374.31;10488994;28;20083;-72
2021/12/24 06:26:18;;;;;;;5.57;5.18;;;;;;;6.64;99.38;98369.31;10505079;28;20045;-72
2021/12/24 06:31:20;;;;;;;6.38;5.97;;;;;;;6.73;99.10;98382.84;10487816;28;20063;-72
2021/12/24 06:36:22;;;;;;;6.75;6.25;;;;;;;6.79;99.44;98379.13;10489209;28;20051;-72
2021/12/24 06:41:24;;;;;;;6.72;6.22;;;;;;;6.76;99.17;98380.06;10508358;28;20044;-71
2021/12/24 06:46:26;;;;;;;7.20;6.70;;;;;;;6.78;100.00;98385.25;10506101;28;20043;-71
2021/12/24 06:51:27;;;;;;;7.38;6.88;;;;;;;6.82;100.00;98384.22;10507371;28;20040;-73
2021/12/24 06:56:29;;;;;;;9.15;8.43;;;;;;;6.83;100.00;98385.91;10505711;28;20044;-74
2021/12/24 07:01:32;;;;;;;9.55;8.88;;;;;;;6.75;100.00;98391.44;10505405;28;20136;-73
2021/12/24 07:06:34;;;;;;;10.13;8.38;;;;;;;6.83;100.00;98391.97;10488707;28;20040;-72
2021/12/24 07:11:36;;;;;;;9.80;9.05;;;;;;;6.75;100.00;98388.00;10507083;28;20048;-72
2021/12/24 07:16:37;;;;;;;9.35;8.55;;;;;;;6.91;100.00;98396.88;10507571;28;20119;-72
2021/12/24 07:21:41;;;;;;;8.63;7.93;;;;;;;6.89;100.00;98383.03;10505746;28;20056;-72
2021/12/24 07:26:42;;;;;;;7.65;7.05;;;;;;;7.01;100.00;98373.81;10506206;28;20098;-72
2021/12/24 07:31:47;;;;;;;7.72;7.22;;;;;;;6.97;100.00;98383.53;10503266;28;20543;-73
2021/12/24 07:36:49;;;;;;;6.57;6.07;;;;;;;7.17;99.71;98369.63;10502369;28;20036;-71
2021/12/24 07:41:51;;;;;;;6.85;6.25;;;;;;;7.31;98.15;98366.38;10484852;28;20501;-72
2021/12/24 07:46:56;;;;;;;6.32;5.82;;;;;;;7.31;97.82;98361.16;10485132;28;20049;-72
2021/12/24 07:52:09;;;;;;;6.03;5.63;;;;;;;7.37;97.83;98371.31;10504129;28;20481;-72
2021/12/24 07:57:13;;;;;;;5.68;5.28;;;;;;;7.35;98.76;98373.16;10484182;28;20123;-72
2021/12/24 08:02:17;;;;;;;6.35;5.85;;;;;;;7.37;98.88;98365.25;10502777;28;20066;-73
2021/12/24 08:07:20;;;;;;;5.72;5.32;;;;;;;7.32;99.01;98374.16;10484821;28;20040;-71
2021/12/24 08:12:22;;;;;;;4.70;4.40;;;;;;;7.43;97.67;98357.97;10504343;28;20123;-71
2021/12/24 08:17:24;;;;;;;5.03;4.63;;;;;;;7.62;96.40;98370.22;10503628;28;20410;-73
2021/12/24 08:22:27;;;;;;;5.00;4.60;;;;;;;7.61;95.45;98374.56;10488338;28;20048;-73
2021/12/24 08:27:28;;;;;;;4.32;4.03;;;;;;;7.80;93.18;98364.97;10489906;28;20045;-73
2021/12/24 08:32:30;;;;;;;4.05;3.75;;;;;;;7.82;93.00;98370.97;10487015;28;20060;-72
2021/12/24 08:37:32;;;;;;;3.85;3.55;;;;;;;7.96;91.38;98366.84;10503782;28;20048;-72
2021/12/24 08:42:34;;;;;;;3.88;3.58;;;;;;;8.02;90.67;98362.19;10504488;28;20045;-72
2021/12/24 08:47:36;;;;;;;3.22;2.92;;;;;;;8.15;89.54;98369.44;10484940;28;20052;-72
2021/12/24 08:52:38;;;;;;;3.30;3.00;;;;;;;8.17;89.21;98357.13;10502821;28;20063;-72
2021/12/24 08:57:41;;;;;;;3.45;3.15;;;;;;;8.31;88.37;98365.13;10502526;28;20102;-73
2021/12/24 09:02:43;;;;;;;2.85;2.65;;;;;;;8.31;88.35;98362.50;10484205;28;20044;-73
2021/12/24 09:07:45;;;;;;;2.30;2.10;;;;;;;8.32;87.74;98364.19;10485605;28;20070;-73
2021/12/24 09:12:47;;;;;;;2.50;2.30;;;;;;;8.47;86.29;98381.81;10502042;28;20060;-72
2021/12/24 09:17:49;;;;;;;2.60;2.40;;;;;;;8.40;87.02;98382.19;10524155;22;20047;-70
2021/12/24 09:22:52;;;;;;;3.00;2.25;;;;;;;8.43;86.44;98384.66;10543057;28;20107;-69
2021/12/24 09:27:55;;;;;;;2.00;1.90;;;;;;;8.45;86.02;98381.03;10546408;28;20044;-70
2021/12/24 09:32:56;;;;;;;2.15;1.88;;;;;;;8.59;84.89;98383.84;10545474;28;20420;-70
2021/12/24 09:37:58;;;;;;;2.67;2.03;;;;;;;8.81;83.12;98369.66;10547013;28;20044;-71
2021/12/24 09:43:01;;;;;;;2.70;1.63;;;;;;;8.84;81.98;98364.25;10545647;28;20054;-71
2021/12/24 09:48:03;;;;;;;2.65;1.85;;;;;;;8.80;83.59;98352.22;10545253;28;20084;-70
2021/12/24 09:53:04;;;;;;;3.00;1.70;;;;;;;8.81;83.71;98357.41;10545344;28;20067;-70
2021/12/24 09:58:06;;;;;;;1.70;1.60;;;;;;;8.95;82.21;98361.94;10545623;28;20040;-70
2021/12/24 10:03:07;;;;;;;2.10;1.90;;;;;;;8.80;82.44;98358.31;10545897;28;20040;-70
2021/12/24 10:08:16;;;;;;;1.65;1.55;;;;;;;8.71;83.51;98377.13;10544864;28;20044;-70
2021/12/24 10:13:43;;;;;;;2.85;1.40;;;;;;;8.92;81.12;98354.22;10544249;28;20460;-70
2021/12/24 10:18:48;;;;;;;1.85;1.67;;;;;;;9.12;79.52;98353.19;10544528;28;20048;-70
2021/12/24 10:23:55;;;;;;;1.35;1.25;;;;;;;9.25;78.32;98349.00;10544518;28;20047;-71
2021/12/24 10:29:05;;;;;;;1.48;1.38;;;;;;;9.19;78.19;98335.34;10545132;28;20043;-70
2021/12/24 10:34:19;;;;;;;1.77;1.67;;;;;;;9.04;78.57;98334.41;10544181;28;20047;-71
2021/12/24 10:39:44;;;;;;;2.63;1.77;;;;;;;9.20;77.82;98334.41;10542990;28;20067;-71
2021/12/24 10:44:47;;;;;;;1.35;1.25;;;;;;;9.31;77.02;98325.06;10543321;28;20073;-70
2021/12/24 10:49:56;;;;;;;1.58;1.40;;;;;;;9.41;75.42;98314.06;10524609;28;20044;-70
2021/12/24 10:55:03;;;;;;;1.65;1.40;;;;;;;9.39;75.57;98313.31;10542578;28;20097;-70
2021/12/24 11:00:13;;;;;;;2.20;1.37;;;;;;;9.46;74.82;98317.28;10542231;28;20489;-71
2021/12/24 11:05:37;;;;;;;2.13;1.58;;;;;;;9.65;73.41;98306.63;10542201;28;20089;-70
2021/12/24 11:10:43;;;;;;;1.52;1.35;;;;;;;9.69;73.75;98295.03;10542543;28;20489;-72
2021/12/24 11:15:50;;;;;;;2.20;1.50;;;;;;;9.47;73.64;98303.22;10523973;28;20101;-70
2021/12/24 11:20:56;;;;;;;2.08;1.30;;;;;;;9.52;73.16;98304.69;10523499;28;20051;-70
2021/12/24 11:26:03;;;;;;;1.67;1.53;;;;;;;9.55;72.95;98299.25;10542830;28;20040;-70
2021/12/24 11:31:17;;;;;;;2.47;1.60;;;;;;;9.35;74.04;98289.03;10542424;28;20572;-71
2021/12/24 11:36:22;;;;;;;1.77;1.60;;;;;;;9.17;74.67;98283.00;10541417;28;20274;-69
2021/12/24 11:41:29;;;;;;;1.98;1.58;;;;;;;9.20;75.47;98281.97;10540709;28;20119;-71
2021/12/24 11:46:30;;;;;;;1.92;1.73;;;;;;;9.20;74.25;98292.47;10522170;28;20047;-70
2021/12/24 11:51:40;;;;;;;1.80;1.45;;;;;;;9.13;75.22;98288.50;10539141;28;20056;-71
2021/12/24 11:56:51;;;;;;;2.38;1.85;;;;;;;9.03;75.37;98290.75;10540902;28;20036;-70
2021/12/24 12:01:53;;;;;;;2.25;1.75;;;;;;;9.03;74.43;98286.38;10538783;28;20048;-70
2021/12/24 12:07:16;;;;;;;2.63;2.00;;;;;;;9.09;73.57;98277.34;10538576;28;20058;-70
2021/12/24 12:12:31;;;;;;;1.80;1.55;;;;;;;9.07;73.50;98277.44;10541623;28;20478;-70
2021/12/24 12:17:50;;;;;;;2.28;1.98;;;;;;;9.06;72.77;98278.31;10540292;28;20040;-70
2021/12/24 12:22:58;;;;;;;2.90;2.08;;;;;;;9.03;72.87;98302.09;10541702;28;20048;-70
2021/12/24 12:28:03;;;;;;;1.60;1.50;;;;;;;8.97;72.70;98297.16;10540417;28;20378;-71
2021/12/24 12:33:15;;;;;;;2.20;1.88;;;;;;;9.04;71.93;98293.31;10539470;28;20066;-72
2021/12/24 12:38:26;;;;;;;2.83;1.70;;;;;;;8.87;73.17;98284.66;10539057;28;20067;-71
2021/12/24 12:43:28;;;;;;;2.22;2.00;;;;;;;8.88;73.16;98288.94;10539320;28;20048;-70
2021/12/24 12:48:44;;;;;;;2.85;1.90;;;;;;;8.93;72.49;98279.91;10539448;28;20089;-70
2021/12/24 12:53:48;;;;;;;3.50;1.90;;;;;;;9.01;71.70;98277.75;10540125;28;20093;-70
2021/12/24 12:59:19;;;;;;;2.40;1.63;;;;;;;9.08;71.15;98273.03;10545389;28;20032;-70
2021/12/24 13:04:21;;;;;;;4.30;2.30;;;;;;;9.04;71.06;98281.97;10402425;28;20450;-70
2021/12/24 13:09:27;;;;;;;2.95;2.17;;;;;;;8.99;71.15;98274.38;10417795;28;20068;-70
2021/12/24 13:14:31;;;;;;;3.75;2.22;;;;;;;8.97;71.23;98289.31;10418003;28;20151;-70
2021/12/24 13:25:11;;;;;;;2.45;2.08;;;;;;;8.91;71.10;98289.63;10418539;28;20127;-70
2021/12/24 13:30:17;;;;;;;2.40;2.00;;;;;;;9.00;70.72;98278.66;10417421;28;20088;-70
2021/12/24 13:35:26;;;;;;;2.58;1.90;;;;;;;8.90;70.88;98276.59;10418466;28;20053;-69
2021/12/24 13:40:34;;;;;;;3.90;2.10;;;;;;;8.69;71.66;98268.13;10490590;28;20051;-69
2021/12/24 13:45:38;;;;;;;3.28;2.10;;;;;;;8.78;71.14;98280.72;10545234;28;20485;-70
2021/12/24 13:54:32;;;;;;;4.15;2.22;;;;;;;8.79;71.34;98285.03;10546882;28;20048;-70
2021/12/24 13:56:10;;;;;;;2.40;2.20;;;;;;;8.73;71.26;98293.22;10527266;28;20093;-69
2021/12/24 14:01:11;;;;;;;3.90;2.60;;;;;;;8.74;71.12;98294.91;10546201;28;20097;-69
2021/12/24 14:06:13;;;;;;;3.40;3.10;;;;;;;8.73;71.07;98294.06;10546562;28;20043;-69
2021/12/24 14:11:23;;;;;;;3.40;2.58;;;;;;;8.66;71.50;98290.06;10545258;28;20101;-69
2021/12/24 14:16:41;;;;;;;3.70;2.55;;;;;;;8.54;73.38;98282.84;10526717;28;20097;-68
2021/12/24 14:21:46;;;;;;;2.88;2.40;;;;;;;8.40;74.59;98308.88;10544206;28;20048;-70
2021/12/24 14:27:01;;;;;;;3.03;2.75;;;;;;;8.33;75.29;98311.78;10525581;28;20061;-70
2021/12/24 14:32:04;;;;;;;3.58;2.95;;;;;;;8.21;76.76;98322.03;10544203;28;20044;-69
2021/12/24 14:37:09;;;;;;;4.07;2.50;;;;;;;8.15;77.08;98335.41;10544040;28;20101;-69
2021/12/24 14:42:17;;;;;;;3.53;3.22;;;;;;;8.09;77.32;98328.69;10527479;28;20109;-69
2021/12/24 14:47:22;;;;;;;3.92;3.05;;;;;;;8.10;77.87;98327.75;10543148;28;20039;-69
2021/12/24 14:52:25;;;;;;;4.35;3.75;;;;;;;8.00;80.11;98324.75;10545372;28;20400;-70
2021/12/24 14:57:27;;;;;;;5.72;3.58;;;;;;;7.71;83.51;98328.78;10543650;28;20044;-70
2021/12/24 15:02:28;;;;;;;4.72;4.25;;;;;;;7.50;85.43;98346.31;10543474;28;20047;-70
2021/12/24 15:07:31;;;;;;;5.47;4.30;;;;;;;7.44;86.02;98362.28;10542521;28;20040;-72
2021/12/24 15:12:41;;;;;;;5.38;4.88;;;;;;;7.38;87.02;98335.56;10543228;28;20044;-70
2021/12/24 15:17:44;;;;;;;4.97;4.57;;;;;;;7.31;86.85;98335.88;10547789;22;20060;-72
2021/12/24 15:22:47;;;;;;;5.78;5.15;;;;;;;7.22;87.89;98328.44;10499954;28;20102;-72
2021/12/24 15:27:52;;;;;;;5.75;5.25;;;;;;;7.21;87.54;98328.50;10482370;28;20417;-71
2021/12/24 15:32:54;;;;;;;6.45;5.35;;;;;;;7.18;86.83;98318.19;10499985;28;20055;-73
2021/12/24 15:37:56;;;;;;;5.72;5.22;;;;;;;7.15;86.58;98320.94;10499547;28;20098;-72
2021/12/24 15:43:02;;;;;;;5.55;5.05;;;;;;;7.22;85.43;98325.81;10499710;28;20040;-73
2021/12/24 15:48:05;;;;;;;6.18;5.57;;;;;;;7.19;85.02;98331.19;10501116;28;20098;-73
2021/12/24 15:53:07;;;;;;;5.10;4.70;;;;;;;7.17;84.82;98329.53;10500157;28;20071;-73
2021/12/24 15:58:10;;;;;;;6.07;5.28;;;;;;;7.19;84.69;98332.94;10499434;28;20040;-72
2021/12/24 16:03:12;;;;;;;5.88;5.38;;;;;;;7.25;84.60;98340.50;10481247;28;20045;-73
2021/12/24 16:08:13;;;;;;;5.50;5.00;;;;;;;7.19;84.72;98330.34;10499801;28;20041;-73
2021/12/24 16:13:17;;;;;;;6.05;5.40;;;;;;;7.15;84.38;98339.22;10497011;28;20441;-72
2021/12/24 16:18:20;;;;;;;6.97;5.25;;;;;;;7.36;83.17;98340.88;10498662;28;20037;-73
2021/12/24 16:23:23;;;;;;;6.03;4.78;;;;;;;7.50;81.58;98345.47;10498200;28;20114;-72
2021/12/24 16:28:26;;;;;;;4.57;3.92;;;;;;;7.53;81.04;98351.41;10500202;28;20060;-72
2021/12/24 16:33:31;;;;;;;3.63;2.20;;;;;;;7.11;82.11;98416.91;10487838;28;20502;-72
2021/12/24 16:38:32;;;;;;;1.35;0.90;;;;;;;6.60;84.34;98427.78;10509162;28;20102;-72
2021/12/24 16:43:34;;;;;;;1.20;1.10;;;;;;;6.08;88.69;98462.06;10507732;28;20044;-72
2021/12/24 16:48:36;;;;;;;1.30;1.20;;;;;;;5.52;93.01;98454.56;10506858;28;20051;-73
2021/12/24 16:53:37;;;;;;;0.60;0.32;;;;;;;5.00;91.47;98498.06;10507434;28;20048;-75
2021/12/24 16:58:39;;;;;;;0.40;0.40;;;;;;;4.49;92.89;98533.56;10506490;28;20049;-73
2021/12/24 17:03:40;;;;;;;0.40;0.30;;;;;;;4.03;93.00;98560.09;10488322;28;20110;-74
2021/12/24 17:08:43;;;;;;;0.20;0.20;;;;;;;3.93;92.81;98564.69;10506263;28;20097;-72
2021/12/24 17:13:45;;;;;;;0.88;0.30;;;;;;;3.65;92.10;98568.97;10506394;28;20588;-74
2021/12/24 17:18:46;;;;;;;0.55;0.20;;;;;;;3.12;91.87;98590.25;10506953;28;20086;-73
2021/12/24 17:23:49;;;;;;;0.20;0.20;;;;;;;3.14;92.57;98601.44;10505932;28;20094;-74
2021/12/24 17:28:50;;;;;;;0.60;0.45;;;;;;;3.06;92.67;98623.31;10506379;28;20379;-73
2021/12/24 17:33:52;;;;;;;0.40;0.40;;;;;;;2.73;94.18;98636.16;10487204;28;20490;-73
2021/12/24 17:38:55;;;;;;;0.40;0.40;;;;;;;2.47;96.37;98650.53;10487287;28;20048;-73
2021/12/24 17:43:57;;;;;;;0.47;0.40;;;;;;;2.40;95.30;98674.06;10486016;28;20052;-72
2021/12/24 17:48:58;;;;;;;0.73;0.43;;;;;;;2.31;93.94;98682.03;10505339;28;20068;-73
2021/12/24 17:54:00;;;;;;;0.47;0.47;;;;;;;2.20;94.48;98684.81;10505825;28;20045;-73
2021/12/24 17:59:04;;;;;;;0.57;0.50;;;;;;;1.96;94.38;98691.34;10469618;28;20102;-73
2021/12/24 18:04:05;;;;;;;0.70;0.70;;;;;;;2.01;94.57;98716.28;10505411;28;20432;-73
2021/12/24 18:09:07;;;;;;;1.13;1.00;;;;;;;1.89;95.15;98716.50;10504064;28;20041;-72
2021/12/24 18:14:09;;;;;;;1.42;0.93;;;;;;;1.84;95.57;98718.31;10504937;28;20052;-73
2021/12/24 18:19:11;;;;;;;0.80;0.77;;;;;;;1.65;93.99;98733.34;10486466;28;20098;-74
2021/12/24 18:24:13;;;;;;;0.85;0.85;;;;;;;1.59;94.67;98753.28;10504180;28;20379;-72
2021/12/24 18:29:15;;;;;;;1.52;0.85;;;;;;;1.63;93.70;98748.03;10485464;28;20490;-73
2021/12/24 18:34:18;;;;;;;0.98;0.98;;;;;;;1.23;94.05;98766.78;10487053;28;20067;-74
2021/12/24 18:39:20;;;;;;;1.20;1.10;;;;;;;1.06;95.39;98765.28;10485318;28;20429;-74
2021/12/24 18:44:22;;;;;;;1.20;1.10;;;;;;;0.97;95.95;98769.75;10504543;28;20044;-74
2021/12/24 18:49:24;;;;;;;1.73;1.63;;;;;;;1.23;94.66;98764.19;10545055;28;20051;-73
2021/12/24 18:54:26;;;;;;;1.73;1.63;;;;;;;1.45;92.74;98775.06;10511990;28;20045;-74
2021/12/24 18:59:27;;;;;;;1.52;1.30;;;;;;;1.52;90.81;98779.28;10462556;28;20044;-73
2021/12/24 19:04:29;;;;;;;1.60;1.50;;;;;;;1.36;91.83;98802.84;10462319;28;20052;-73
2021/12/24 19:09:31;;;;;;;2.10;1.63;;;;;;;1.09;94.18;98811.84;10460304;28;20147;-73
2021/12/24 19:14:32;;;;;;;2.50;2.05;;;;;;;1.22;94.03;98823.75;10443532;28;20048;-73
2021/12/24 19:19:34;;;;;;;2.60;2.38;;;;;;;1.22;93.54;98822.00;10460218;28;20041;-73
2021/12/24 19:24:36;;;;;;;3.30;2.92;;;;;;;1.02;95.83;98834.38;10441463;28;20049;-73
2021/12/24 19:29:37;;;;;;;3.08;2.80;;;;;;;0.91;96.86;98837.09;10459029;28;20048;-73
2021/12/24 19:34:39;;;;;;;4.13;3.83;;;;;;;0.83;97.19;98825.09;10442167;28;20053;-73
2021/12/24 19:39:40;;;;;;;3.45;3.15;;;;;;;0.76;97.85;98829.50;10459673;28;20120;-73
2021/12/24 19:44:42;;;;;;;4.15;3.85;;;;;;;0.92;97.27;98862.06;10459382;28;20103;-72
2021/12/24 19:49:43;;;;;;;3.90;3.60;;;;;;;1.01;97.55;98874.91;10440134;28;20410;-72
2021/12/24 19:54:45;;;;;;;3.38;3.17;;;;;;;1.00;97.04;98878.38;10458555;28;20482;-72
2021/12/24 19:59:47;;;;;;;2.10;2.00;;;;;;;1.03;96.60;98874.91;10441295;28;20495;-73
2021/12/24 20:04:48;;;;;;;2.50;2.30;;;;;;;0.83;96.57;98895.81;10457780;28;20499;-74
2021/12/24 20:09:50;;;;;;;2.50;2.30;;;;;;;0.66;97.15;98897.72;10458163;28;20049;-73
2021/12/24 20:14:51;;;;;;;2.28;2.13;;;;;;;0.73;97.07;98910.56;10457848;28;20041;-74
2021/12/24 20:19:53;;;;;;;2.35;2.17;;;;;;;0.73;98.14;98912.31;10440718;28;20045;-73
2021/12/24 20:24:55;;;;;;;3.08;2.83;;;;;;;0.75;97.88;98919.19;10465358;28;20408;-74
2021/12/24 20:29:56;;;;;;;3.72;3.50;;;;;;;0.69;97.87;98914.06;10540586;28;20089;-73
2021/12/24 20:35:00;;;;;;;3.63;3.33;;;;;;;0.67;97.70;98910.66;10522357;28;20044;-73
2021/12/24 20:40:04;;;;;;;4.57;4.28;;;;;;;0.64;97.71;98922.75;10541388;28;20106;-74
2021/12/24 20:45:08;;;;;;;4.68;4.38;;;;;;;0.70;97.61;98914.91;10541618;28;20056;-73
2021/12/24 20:50:11;;;;;;;3.97;3.67;;;;;;;0.68;97.59;98933.03;10523955;28;20101;-73
2021/12/24 20:55:13;;;;;;;5.95;5.55;;;;;;;0.67;96.96;98956.34;10525448;28;20461;-73
2021/12/24 21:00:17;;;;;;;6.55;6.15;;;;;;;0.58;97.83;98959.88;10503508;28;20543;-72
2021/12/24 21:05:22;;;;;;;5.90;5.50;;;;;;;0.52;96.18;98961.63;10499184;28;20048;-73
2021/12/24 21:10:26;;;;;;;7.18;6.68;;;;;;;0.55;96.60;98978.00;10499331;28;20097;-74
2021/12/24 21:15:28;;;;;;;8.50;7.90;;;;;;;0.47;96.78;98979.78;10498463;28;20052;-73
2021/12/24 21:20:29;;;;;;;8.60;8.00;;;;;;;0.43;97.36;98971.19;10541639;22;20062;-70
2021/12/24 21:25:33;;;;;;;7.20;6.75;;;;;;;0.47;97.23;98967.69;10546786;28;20117;-70
2021/12/24 21:30:35;;;;;;;9.70;9.00;;;;;;;0.30;97.87;98998.00;10546387;28;20385;-70
2021/12/24 21:35:40;;;;;;;9.43;8.82;;;;;;;0.29;98.25;98996.28;10530125;28;20043;-70
2021/12/24 21:40:42;;;;;;;10.13;9.43;;;;;;;0.25;98.88;98989.41;10545037;28;20044;-71
2021/12/24 21:45:46;;;;;;;10.75;10.05;;;;;;;0.08;99.28;98975.75;10546443;28;20044;-70
2021/12/24 21:50:49;;;;;;;10.65;9.88;;;;;;;0.07;99.74;98987.81;10546152;28;20040;-70
2021/12/24 21:55:50;;;;;;;10.35;9.73;;;;;;;0.27;99.42;99002.31;10545300;28;20044;-70
2021/12/24 22:00:53;;;;;;;11.70;10.90;;;;;;;0.28;98.78;98998.88;10545135;28;20048;-71
2021/12/24 22:08:22;;;;;;;11.77;10.98;;;;;;;0.30;99.24;99007.47;10544797;28;20052;-71
2021/12/24 22:11:33;;;;;;;11.98;11.18;;;;;;;0.24;98.48;99024.75;10544795;28;20071;-70
2021/12/24 22:16:35;;;;;;;13.30;12.40;;;;;;;0.27;98.19;99030.75;10544246;28;20413;-70
2021/12/24 22:21:54;;;;;;;13.10;12.10;;;;;;;0.19;98.58;99033.41;10543937;28;20062;-70
2021/12/24 22:26:56;;;;;;;13.25;12.35;;;;;;;0.19;99.31;99036.84;10543816;28;20036;-71
2021/12/24 22:31:58;;;;;;;15.13;13.98;;;;;;;0.17;99.28;99050.63;10543268;28;20059;-71
2021/12/24 22:37:00;;;;;;;13.80;12.80;;;;;;;0.17;99.63;99043.72;10543426;28;20036;-71
2021/12/24 22:42:02;;;;;;;16.90;15.60;;;;;;;0.19;99.52;99047.19;10524903;28;20055;-71
2021/12/24 22:47:04;;;;;;;15.50;14.40;;;;;;;0.12;99.71;99058.41;10543739;28;20040;-69
2021/12/24 22:52:16;;;;;;;15.75;14.65;;;;;;;0.13;99.79;99056.69;10543376;28;20486;-71
2021/12/24 22:57:17;;;;;;;15.50;14.40;;;;;;;0.19;99.54;99069.59;10542100;28;20535;-69
2021/12/24 23:02:19;;;;;;;15.77;14.68;;;;;;;0.26;98.96;99073.84;10542425;28;20040;-71
2021/12/24 23:07:21;;;;;;;16.20;15.10;;;;;;;0.15;99.26;99078.22;10541884;28;20040;-71
2021/12/24 23:12:22;;;;;;;16.38;15.18;;;;;;;0.22;99.57;99078.19;10541845;28;20056;-71
2021/12/24 23:17:25;;;;;;;16.52;15.38;;;;;;;0.11;99.22;99082.53;10541937;28;20040;-71
2021/12/24 23:22:27;;;;;;;15.45;14.35;;;;;;;0.08;98.99;99095.47;10541335;28;20435;-71
2021/12/24 23:27:28;;;;;;;16.27;15.18;;;;;;;0.01;100.00;99101.53;10541516;28;20156;-70
2021/12/24 23:32:31;;;;;;;13.68;12.68;;;;;;;0.06;98.94;99106.69;10541077;28;20040;-70
2021/12/24 23:37:32;;;;;;;10.23;9.43;;;;;;;0.03;97.66;99104.97;10540682;28;20040;-70
2021/12/24 23:42:35;;;;;;;10.73;9.93;;;;;;;-0.01;97.67;99117.03;10539928;28;20412;-71
2021/12/24 23:47:41;;;;;;;9.38;8.68;;;;;;;-0.09;97.43;99102.41;10540474;28;20447;-70
2021/12/24 23:52:48;;;;;;;7.80;7.10;;;;;;;0.08;95.65;99117.88;10540771;28;20078;-70
2021/12/24 23:57:50;;;;;;;;;;;;;;;0.01;96.15;99129.97;10540571;28;20040;-71
